Time;durP1;ratioP1;P1;durP2;ratioP2;P2;SDS_P1;SDS_P2;PMS_P1;PMS_P2;Temp;Humidity;BMP_temperature;BMP_pressure;BME280_temperature;BME280_humidity;BME280_pressure;Samples;Min_cycle;Max_cycle;Signal;HPM_P1;HPM_P2
2023/08/25 00:01:19;;;;;;;13.90;9.30;;;20.40;99.90;;;;;;5026428;28;20053;-67
2023/08/25 00:03:45;;;;;;;13.23;9.52;;;20.30;99.90;;;;;;5027289;28;20049;-67
2023/08/25 00:06:11;;;;;;;15.60;9.73;;;20.30;99.90;;;;;;5015885;28;20156;-67
2023/08/25 00:08:37;;;;;;;17.75;10.07;;;20.20;99.90;;;;;;4992416;28;20447;-67
2023/08/25 00:11:04;;;;;;;10.93;9.18;;;20.20;99.90;;;;;;4996270;28;20069;-67
2023/08/25 00:13:30;;;;;;;15.23;9.32;;;20.20;99.90;;;;;;4975843;28;20066;-67
2023/08/25 00:15:56;;;;;;;16.63;9.40;;;20.20;99.90;;;;;;4995242;28;20487;-67
2023/08/25 00:18:21;;;;;;;16.20;9.48;;;20.10;99.90;;;;;;4996810;28;20053;-66
2023/08/25 00:20:49;;;;;;;13.00;9.65;;;20.10;99.90;;;;;;5005481;28;20054;-67
2023/08/25 00:23:15;;;;;;;16.02;9.00;;;20.10;99.90;;;;;;5008667;28;20038;-67
2023/08/25 00:25:45;;;;;;;14.18;9.80;;;20.10;99.90;;;;;;5001401;28;20380;-67
2023/08/25 00:28:11;;;;;;;;;;;20.10;99.90;;;;;;4987891;28;20077;-67
2023/08/25 00:30:37;;;;;;;14.15;9.00;;;20.10;99.90;;;;;;4987271;28;19961;-66
2023/08/25 00:33:03;;;;;;;16.75;11.18;;;20.10;99.90;;;;;;4986373;28;20042;-67
2023/08/25 00:35:29;;;;;;;15.82;10.65;;;20.10;99.90;;;;;;4979174;28;20060;-67
2023/08/25 00:37:55;;;;;;;14.63;9.32;;;20.10;99.90;;;;;;5009003;28;20044;-67
2023/08/25 00:40:21;;;;;;;15.95;9.88;;;20.10;99.90;;;;;;5000234;28;21124;-67
2023/08/25 00:42:47;;;;;;;17.75;9.95;;;20.10;99.90;;;;;;4990055;28;22577;-67
2023/08/25 00:45:13;;;;;;;12.05;9.75;;;20.00;99.90;;;;;;4944204;28;23457;-67
2023/08/25 00:47:40;;;;;;;15.80;10.23;;;19.90;99.90;;;;;;4970684;28;24626;-66
2023/08/25 00:50:09;;;;;;;14.48;9.85;;;19.90;99.90;;;;;;4950026;28;24912;-67
2023/08/25 00:52:36;;;;;;;13.20;10.23;;;19.80;99.90;;;;;;5006891;28;25372;-67
2023/08/25 00:55:03;;;;;;;15.55;10.77;;;19.70;99.90;;;;;;4965113;28;29744;-67
2023/08/25 00:57:31;;;;;;;15.10;9.90;;;19.70;99.90;;;;;;4962391;28;30597;-66
2023/08/25 00:59:58;;;;;;;14.48;9.70;;;19.70;99.90;;;;;;4967351;28;31945;-67
2023/08/25 01:02:24;;;;;;;16.08;10.05;;;19.60;99.90;;;;;;4980294;28;31916;-67
2023/08/25 01:04:50;;;;;;;15.82;10.23;;;19.60;99.90;;;;;;4935278;28;32703;-67
2023/08/25 01:07:16;;;;;;;16.65;10.35;;;19.50;99.90;;;;;;4965865;28;25372;-67
2023/08/25 01:09:42;;;;;;;11.05;9.45;;;19.60;99.90;;;;;;4981570;28;34907;-66
2023/08/25 01:12:39;;;;;;;12.40;9.05;;;19.50;99.90;;;;;;4986154;28;36230;-67
2023/08/25 01:15:16;;;;;;;14.80;10.93;;;19.50;99.90;;;;;;4950546;28;37525;-67
2023/08/25 01:17:48;;;;;;;16.90;12.05;;;19.40;99.90;;;;;;4984761;28;37928;-66
2023/08/25 01:20:15;;;;;;;15.75;12.02;;;19.40;99.90;;;;;;4990550;28;38764;-67
2023/08/25 01:23:07;;;;;;;14.18;11.07;;;19.40;99.90;;;;;;4979500;28;25435;-67
2023/08/25 01:25:34;;;;;;;13.65;11.25;;;19.40;99.90;;;;;;4960663;28;41471;-67
2023/08/25 01:28:03;;;;;;;15.63;11.85;;;19.40;99.90;;;;;;4940766;28;42236;-66
2023/08/25 01:30:32;;;;;;;14.05;10.60;;;19.40;99.90;;;;;;4949355;28;43156;-67
2023/08/25 01:32:59;;;;;;;13.23;10.63;;;19.30;99.90;;;;;;4977041;28;46185;-66
2023/08/25 01:35:38;;;;;;;22.30;11.10;;;19.30;99.90;;;;;;4996007;28;47907;-67
2023/08/25 01:38:23;;;;;;;16.35;11.20;;;19.30;99.90;;;;;;4961137;28;49045;-67
2023/08/25 01:41:18;;;;;;;15.82;10.43;;;19.30;99.90;;;;;;4946190;28;51749;-67
2023/08/25 01:43:48;;;;;;;14.43;11.10;;;19.20;99.90;;;;;;4975240;28;49672;-66
2023/08/25 01:46:17;;;;;;;15.85;11.32;;;19.20;99.90;;;;;;4940650;28;31920;-67
2023/08/25 01:48:45;;;;;;;15.70;10.57;;;19.20;99.90;;;;;;4976263;28;32895;-67
2023/08/25 01:51:12;;;;;;;14.60;10.48;;;19.20;99.90;;;;;;4969542;28;35341;-67
2023/08/25 01:53:38;;;;;;;14.07;10.88;;;19.20;99.90;;;;;;4949580;28;36423;-66
2023/08/25 01:56:04;;;;;;;17.45;10.68;;;19.20;99.90;;;;;;4955209;28;39184;-66
2023/08/25 01:58:30;;;;;;;14.98;10.77;;;19.30;99.90;;;;;;4961314;28;40010;-67
2023/08/25 02:00:56;;;;;;;16.13;10.68;;;19.30;99.90;;;;;;4961251;28;41449;-67
2023/08/25 02:03:22;;;;;;;13.38;9.90;;;19.30;99.90;;;;;;4920433;28;44398;-67
2023/08/25 02:05:48;;;;;;;14.15;10.57;;;19.20;99.90;;;;;;4940949;28;46213;-67
2023/08/25 02:08:15;;;;;;;15.00;9.85;;;19.20;99.90;;;;;;4942424;28;48090;-67
2023/08/25 02:10:40;;;;;;;16.33;10.00;;;19.20;99.90;;;;;;4980023;28;50472;-67
2023/08/25 02:13:06;;;;;;;13.38;10.05;;;19.20;99.90;;;;;;4976266;28;51735;-67
2023/08/25 02:15:35;;;;;;;16.13;10.68;;;19.10;99.90;;;;;;4964687;28;54316;-66
2023/08/25 02:18:03;;;;;;;14.95;10.13;;;19.10;99.90;;;;;;4958405;28;56958;-65
2023/08/25 02:20:29;;;;;;;14.65;9.93;;;19.10;99.90;;;;;;4935571;28;34996;-67
2023/08/25 02:22:55;;;;;;;14.63;9.68;;;19.00;99.90;;;;;;4981059;28;24720;-67
2023/08/25 02:25:21;;;;;;;13.90;10.38;;;19.10;99.90;;;;;;4955648;28;35577;-67
2023/08/25 02:27:47;;;;;;;14.50;9.75;;;19.00;99.90;;;;;;4943543;28;25102;-67
2023/08/25 02:30:14;;;;;;;13.63;10.65;;;19.10;99.90;;;;;;4982649;28;44477;-67
2023/08/25 02:32:41;;;;;;;12.23;9.85;;;19.00;99.90;;;;;;4990305;28;44781;-67
2023/08/25 02:35:08;;;;;;;14.35;10.85;;;18.90;99.90;;;;;;4947252;28;46254;-66
2023/08/25 02:37:34;;;;;;;14.40;9.90;;;18.90;99.90;;;;;;4976464;28;47483;-67
2023/08/25 02:40:00;;;;;;;15.00;10.35;;;18.90;99.90;;;;;;4986349;28;48026;-67
2023/08/25 02:42:26;;;;;;;13.25;10.07;;;18.80;99.90;;;;;;4950639;28;48851;-67
2023/08/25 02:44:51;;;;;;;14.32;10.40;;;18.90;99.90;;;;;;4978378;28;49700;-66
2023/08/25 02:47:17;;;;;;;15.75;10.43;;;18.90;99.90;;;;;;4951490;28;50539;-67
2023/08/25 02:49:43;;;;;;;13.20;10.55;;;19.00;99.90;;;;;;4954709;28;74489;-67
2023/08/25 02:52:09;;;;;;;13.52;10.40;;;18.90;99.90;;;;;;4931394;28;90502;-66
2023/08/25 02:54:36;;;;;;;11.73;9.75;;;19.00;99.90;;;;;;4957455;28;90072;-67
2023/08/25 02:57:02;;;;;;;14.20;10.60;;;19.00;99.90;;;;;;4922090;28;80869;-67
2023/08/25 02:59:28;;;;;;;15.07;9.68;;;19.00;99.90;;;;;;4941992;28;75528;-67
2023/08/25 03:01:54;;;;;;;12.95;10.00;;;19.00;99.90;;;;;;4873309;28;72340;-66
2023/08/25 03:06:47;;;;;;;13.52;10.65;;;19.00;99.90;;;;;;4915330;28;66202;-67
2023/08/25 03:09:13;;;;;;;13.93;11.18;;;18.90;99.90;;;;;;4951155;28;63007;-67
2023/08/25 03:11:39;;;;;;;13.25;10.10;;;18.90;99.90;;;;;;4952221;28;41113;-66
2023/08/25 03:14:07;;;;;;;13.52;10.60;;;19.00;99.90;;;;;;4942532;28;25003;-66
2023/08/25 03:16:33;;;;;;;13.77;10.52;;;18.90;99.90;;;;;;4904833;28;24876;-66
2023/08/25 03:18:59;;;;;;;15.82;11.23;;;18.90;99.90;;;;;;4929208;28;24778;-66
2023/08/25 03:21:26;;;;;;;17.70;10.68;;;18.90;99.90;;;;;;4927610;28;42619;-67
2023/08/25 03:23:53;;;;;;;15.15;10.73;;;18.90;99.90;;;;;;4931494;28;49270;-66
2023/08/25 03:26:19;;;;;;;15.32;10.60;;;18.90;99.90;;;;;;4896993;28;42525;-66
2023/08/25 03:28:47;;;;;;;13.52;10.85;;;18.90;99.90;;;;;;4860180;28;43651;-67
2023/08/25 03:31:13;;;;;;;12.10;9.77;;;18.90;99.90;;;;;;4854714;28;24917;-67
2023/08/25 03:33:39;;;;;;;12.95;10.52;;;18.90;99.90;;;;;;4912266;28;43764;-66
2023/08/25 03:36:05;;;;;;;13.57;10.40;;;18.80;99.90;;;;;;4876023;28;44986;-66
2023/08/25 03:38:32;;;;;;;13.40;10.25;;;18.90;99.90;;;;;;4833050;28;44454;-67
2023/08/25 03:40:59;;;;;;;15.15;10.20;;;18.80;99.90;;;;;;4874289;28;48613;-66
2023/08/25 03:45:50;;;;;;;14.27;11.13;;;18.80;99.90;;;;;;4836421;28;46348;-66
2023/08/25 03:48:16;;;;;;;17.02;11.38;;;18.80;99.90;;;;;;4810133;28;48712;-67
2023/08/25 03:50:51;;;;;;;13.30;10.60;;;18.80;99.90;;;;;;4847362;28;47516;-67
2023/08/25 03:53:17;;;;;;;15.82;10.50;;;18.80;99.90;;;;;;4820248;28;47387;-66
2023/08/25 03:55:43;;;;;;;16.23;10.68;;;18.80;99.90;;;;;;4825250;28;48252;-67
2023/08/25 03:58:10;;;;;;;15.90;10.98;;;18.80;99.90;;;;;;4847352;28;48378;-67
2023/08/25 04:00:36;;;;;;;14.15;10.68;;;18.80;99.90;;;;;;4821210;28;48944;-66
2023/08/25 04:03:03;;;;;;;15.63;11.07;;;18.80;99.90;;;;;;4848528;28;25032;-67
2023/08/25 04:05:30;;;;;;;15.85;11.13;;;18.70;99.90;;;;;;4888819;28;28039;-67
2023/08/25 04:07:56;;;;;;;14.35;10.38;;;18.70;99.90;;;;;;4877543;28;49109;-67
2023/08/25 04:10:23;;;;;;;14.90;9.82;;;18.70;99.90;;;;;;4832755;28;49956;-62
2023/08/25 04:12:50;;;;;;;13.85;10.43;;;18.60;99.90;;;;;;4852065;28;49682;-67
2023/08/25 04:15:16;;;;;;;16.83;11.35;;;18.70;99.90;;;;;;4865756;28;49531;-67
2023/08/25 04:17:42;;;;;;;16.73;10.85;;;18.70;99.90;;;;;;4860132;28;49738;-66
2023/08/25 04:20:29;;;;;;;21.92;12.27;;;18.70;99.90;;;;;;4826029;29;49582;-67
2023/08/25 04:22:55;;;;;;;15.15;11.38;;;18.70;99.90;;;;;;4763194;29;49636;-66
2023/08/25 04:25:22;;;;;;;18.73;11.30;;;18.70;99.90;;;;;;4753299;29;73627;-67
2023/08/25 04:30:53;;;;;;;17.75;10.52;;;18.70;99.90;;;;;;5150479;27;20133;-67
2023/08/25 04:33:28;;;;;;;13.10;10.73;;;18.70;99.90;;;;;;5085822;28;20079;-67
2023/08/25 04:35:54;;;;;;;16.83;10.52;;;18.70;99.90;;;;;;5095401;28;20071;-67
2023/08/25 04:38:20;;;;;;;15.02;10.88;;;18.80;99.90;;;;;;5118551;27;20400;-66
2023/08/25 04:40:48;;;;;;;17.77;11.20;;;18.90;99.90;;;;;;5097532;28;20071;-66
2023/08/25 04:43:14;;;;;;;16.50;11.13;;;18.90;99.90;;;;;;5098271;27;20071;-66
2023/08/25 04:45:40;;;;;;;16.60;11.23;;;18.90;99.90;;;;;;5076392;27;20830;-67
2023/08/25 04:48:07;;;;;;;14.68;10.90;;;18.90;99.90;;;;;;5070530;28;20052;-67
2023/08/25 04:50:33;;;;;;;18.88;11.63;;;19.00;99.90;;;;;;5094253;27;20112;-67
2023/08/25 04:53:00;;;;;;;26.60;14.70;;;19.10;99.90;;;;;;5109945;27;20492;-66
2023/08/25 04:55:26;;;;;;;22.08;11.65;;;19.30;99.90;;;;;;5088138;28;20052;-67
2023/08/25 04:57:52;;;;;;;20.48;11.57;;;19.40;99.90;;;;;;5079560;28;20044;-67
2023/08/25 05:00:19;;;;;;;16.92;11.50;;;19.40;99.90;;;;;;5083632;28;20048;-66
2023/08/25 05:02:48;;;;;;;17.10;12.70;;;19.50;99.90;;;;;;5097144;27;20048;-66
2023/08/25 05:05:17;;;;;;;23.17;12.80;;;19.50;99.90;;;;;;5060781;28;20351;-66
2023/08/25 05:07:43;;;;;;;22.92;13.05;;;19.60;99.90;;;;;;5058882;28;20044;-67
2023/08/25 05:10:11;;;;;;;18.48;13.52;;;19.70;99.90;;;;;;5042551;28;20072;-67
2023/08/25 05:12:40;;;;;;;22.77;13.32;;;19.80;99.90;;;;;;5076155;27;20068;-67
2023/08/25 05:15:07;;;;;;;22.77;14.27;;;19.90;99.90;;;;;;5079338;27;20602;-67
2023/08/25 05:17:36;;;;;;;27.20;14.45;;;20.00;99.90;;;;;;5062481;28;20036;-66
2023/08/25 05:20:04;;;;;;;23.67;14.13;;;20.10;99.90;;;;;;5046513;27;20516;-67
2023/08/25 05:22:31;;;;;;;22.15;13.93;;;20.20;99.90;;;;;;5036952;28;20049;-67
2023/08/25 05:24:57;;;;;;;23.88;13.15;;;20.30;99.90;;;;;;5042298;28;20087;-67
2023/08/25 05:27:23;;;;;;;22.30;13.90;;;20.40;99.90;;;;;;4984583;28;20137;-67
2023/08/25 05:29:50;;;;;;;21.70;14.13;;;20.50;99.90;;;;;;4956854;28;20050;-67
2023/08/25 05:32:21;;;;;;;24.98;15.65;;;20.60;99.90;;;;;;5006358;28;22839;-67
2023/08/25 05:35:23;;;;;;;27.02;16.10;;;20.60;99.90;;;;;;4968015;28;20086;-67
2023/08/25 05:37:50;;;;;;;27.17;17.02;;;20.70;99.90;;;;;;4982927;28;20045;-66
2023/08/25 05:40:16;;;;;;;31.50;17.42;;;20.90;99.90;;;;;;5020825;28;20049;-67
2023/08/25 05:42:44;;;;;;;28.58;17.67;;;20.90;99.90;;;;;;4996511;28;20245;-67
2023/08/25 05:45:10;;;;;;;26.17;17.02;;;21.10;99.90;;;;;;4976580;28;20050;-67
2023/08/25 05:47:39;;;;;;;26.23;16.92;;;21.20;99.90;;;;;;4989147;28;20084;-67
2023/08/25 05:50:05;;;;;;;25.50;14.60;;;21.30;99.90;;;;;;5014784;28;20056;-66
2023/08/25 05:52:31;;;;;;;27.25;15.05;;;21.50;99.90;;;;;;5002717;28;20123;-67
2023/08/25 05:55:00;;;;;;;23.50;14.88;;;21.60;99.90;;;;;;5024165;28;20050;-67
2023/08/25 05:57:26;;;;;;;22.85;13.40;;;21.80;99.90;;;;;;5064991;28;20885;-67
2023/08/25 05:59:52;;;;;;;25.25;15.00;;;21.90;99.90;;;;;;5031374;28;20057;-67
2023/08/25 06:02:21;;;;;;;25.90;14.18;;;22.00;99.90;;;;;;5033417;28;20040;-67
2023/08/25 06:04:47;;;;;;;24.73;13.07;;;22.20;99.90;;;;;;5028022;28;20544;-67
2023/08/25 06:07:13;;;;;;;21.88;11.70;;;22.30;99.90;;;;;;5041361;28;20051;-68
2023/08/25 06:09:39;;;;;;;24.83;12.13;;;22.50;99.90;;;;;;5055312;28;20048;-68
2023/08/25 06:12:06;;;;;;;22.48;12.07;;;22.70;99.90;;;;;;5049610;28;20042;-67
2023/08/25 06:14:32;;;;;;;15.15;10.57;;;22.70;99.90;;;;;;5033278;28;20052;-68
2023/08/25 06:17:00;;;;;;;19.70;12.30;;;22.90;99.90;;;;;;5038280;28;20510;-68
2023/08/25 06:19:27;;;;;;;15.90;10.73;;;23.00;99.90;;;;;;4926110;28;1487982;-68
2023/08/25 06:21:58;;;;;;;16.80;10.25;;;23.20;99.90;;;;;;4963046;28;20461;-68
2023/08/25 06:24:25;;;;;;;14.85;10.50;;;23.40;99.90;;;;;;4945144;28;20060;-68
2023/08/25 06:26:58;;;;;;;30.17;17.63;;;23.50;99.90;;;;;;4956288;28;20073;-68
2023/08/25 06:29:24;;;;;;;34.10;16.27;;;23.70;99.90;;;;;;4881148;28;20070;-68
2023/08/25 06:31:49;;;;;;;21.08;12.45;;;23.60;99.90;;;;;;4945139;28;20543;-68
2023/08/25 06:34:15;;;;;;;24.85;12.30;;;23.70;99.90;;;;;;4994506;28;20490;-68
2023/08/25 06:36:41;;;;;;;17.25;11.60;;;23.90;99.90;;;;;;5002475;28;20870;-68
2023/08/25 06:39:07;;;;;;;17.95;10.30;;;24.20;99.90;;;;;;5003014;28;20453;-68
2023/08/25 06:41:33;;;;;;;23.85;11.73;;;24.30;99.90;;;;;;5013388;28;20571;-69
2023/08/25 06:44:07;;;;;;;20.70;10.55;;;24.60;99.90;;;;;;4972767;28;21490;-68
2023/08/25 06:46:33;;;;;;;20.08;9.45;;;25.00;99.90;;;;;;4998694;28;23374;-68
2023/08/25 06:48:59;;;;;;;23.00;10.07;;;25.30;99.90;;;;;;4999757;28;24245;-68
2023/08/25 06:51:25;;;;;;;22.25;10.65;;;25.50;99.90;;;;;;4977970;28;29772;-68
2023/08/25 06:53:51;;;;;;;19.85;10.38;;;25.60;99.90;;;;;;4903892;28;30347;-68
2023/08/25 06:56:17;;;;;;;29.42;12.45;;;25.80;99.90;;;;;;4908200;28;33365;-68
2023/08/25 06:58:43;;;;;;;18.17;10.43;;;26.10;99.80;;;;;;4920556;28;34492;-68
2023/08/25 07:01:10;;;;;;;23.60;12.18;;;26.20;98.90;;;;;;4899948;28;36052;-68
2023/08/25 07:03:36;;;;;;;20.33;10.70;;;26.60;98.40;;;;;;4706167;29;37295;-68
2023/08/25 07:06:05;;;;;;;17.77;9.90;;;26.80;97.90;;;;;;4762920;29;38689;-68
2023/08/25 07:08:31;;;;;;;20.23;9.90;;;27.10;96.70;;;;;;4883830;28;39539;-68
2023/08/25 07:10:57;;;;;;;15.88;9.80;;;27.20;95.70;;;;;;4873634;28;40653;-67
2023/08/25 07:13:23;;;;;;;13.98;9.30;;;27.10;95.00;;;;;;4927506;28;41242;-68
2023/08/25 07:15:49;;;;;;;19.73;10.57;;;27.40;95.50;;;;;;4959491;28;41358;-68
2023/08/25 07:18:15;;;;;;;21.88;11.07;;;27.40;94.70;;;;;;4960581;28;43434;-68
2023/08/25 07:20:42;;;;;;;16.30;9.68;;;27.70;94.60;;;;;;4999619;28;44050;-68
2023/08/25 07:23:08;;;;;;;21.00;10.40;;;28.10;94.00;;;;;;5004041;28;24821;-69
2023/08/25 07:25:34;;;;;;;20.90;10.27;;;28.10;92.20;;;;;;4991266;28;45796;-69
2023/08/25 07:28:00;;;;;;;23.48;11.10;;;28.20;91.50;;;;;;4961246;28;46973;-69
2023/08/25 07:30:26;;;;;;;15.70;9.20;;;28.30;91.90;;;;;;4945418;28;46955;-69
2023/08/25 07:32:53;;;;;;;20.27;10.68;;;28.80;92.00;;;;;;4962940;28;25477;-69
2023/08/25 07:35:19;;;;;;;16.95;9.75;;;29.40;88.80;;;;;;4944753;28;52206;-69
2023/08/25 07:37:45;;;;;;;21.23;11.55;;;29.40;88.10;;;;;;4978743;28;51922;-68
2023/08/25 07:40:11;;;;;;;19.40;10.00;;;29.50;86.50;;;;;;4991860;28;53718;-69
2023/08/25 07:42:37;;;;;;;16.15;9.15;;;29.70;86.30;;;;;;4984179;28;49533;-69
2023/08/25 07:45:04;;;;;;;23.05;10.20;;;30.00;87.40;;;;;;4971690;28;56599;-69
2023/08/25 07:47:30;;;;;;;15.68;9.35;;;30.40;81.20;;;;;;4920778;28;49378;-68
2023/08/25 07:49:56;;;;;;;17.42;9.50;;;30.80;76.70;;;;;;4993906;28;50027;-69
2023/08/25 07:52:22;;;;;;;17.75;9.57;;;30.80;75.00;;;;;;4994195;28;49072;-69
2023/08/25 07:54:48;;;;;;;16.40;8.98;;;31.10;74.30;;;;;;4986155;28;50424;-69
2023/08/25 07:57:17;;;;;;;22.27;10.30;;;31.40;73.30;;;;;;5005848;28;61232;-69
2023/08/25 07:59:43;;;;;;;26.25;11.50;;;31.70;72.10;;;;;;4974156;28;49988;-69
2023/08/25 08:02:10;;;;;;;17.15;8.30;;;31.70;69.50;;;;;;4958696;28;62950;-69
2023/08/25 08:04:38;;;;;;;18.27;9.73;;;31.90;68.20;;;;;;4959289;28;49862;-69
2023/08/25 08:07:04;;;;;;;18.30;9.77;;;32.30;68.90;;;;;;4978577;28;66413;-70
2023/08/25 08:09:31;;;;;;;22.70;10.30;;;32.40;65.50;;;;;;4995526;28;66684;-69
2023/08/25 08:11:58;;;;;;;22.50;11.20;;;32.50;63.40;;;;;;4916444;28;68859;-70
2023/08/25 08:14:24;;;;;;;18.05;9.50;;;32.70;61.50;;;;;;4923565;28;69894;-69
2023/08/25 08:16:51;;;;;;;19.52;10.93;;;32.30;65.40;;;;;;4904689;28;49588;-69
2023/08/25 08:19:17;;;;;;;21.13;10.45;;;32.70;61.40;;;;;;4938570;28;72706;-69
2023/08/25 08:21:42;;;;;;;17.48;10.35;;;32.70;62.50;;;;;;4943116;28;49603;-69
2023/08/25 08:24:10;;;;;;;23.25;10.00;;;33.30;62.60;;;;;;4933392;28;50516;-69
2023/08/25 08:26:36;;;;;;;22.88;10.23;;;33.50;59.00;;;;;;4952071;28;50106;-69
2023/08/25 08:29:02;;;;;;;13.57;9.10;;;33.50;58.80;;;;;;4983213;28;50073;-69
2023/08/25 08:31:29;;;;;;;16.25;9.70;;;33.70;54.00;;;;;;4966652;28;50088;-69
2023/08/25 08:33:55;;;;;;;15.93;9.00;;;33.80;55.20;;;;;;4959325;28;59762;-70
2023/08/25 08:36:21;;;;;;;19.00;8.80;;;33.80;54.00;;;;;;4936064;28;49579;-70
2023/08/25 08:38:47;;;;;;;14.43;8.98;;;33.70;53.60;;;;;;4911077;28;63176;-70
2023/08/25 08:41:17;;;;;;;14.43;8.88;;;34.00;53.90;;;;;;4937588;28;50579;-70
2023/08/25 08:43:45;;;;;;;14.25;9.88;;;34.50;54.10;;;;;;4964120;28;49956;-69
2023/08/25 08:46:17;;;;;;;24.77;11.80;;;34.80;52.80;;;;;;4944038;28;73648;-70
2023/08/25 08:48:43;;;;;;;15.40;9.52;;;35.00;50.00;;;;;;4951610;28;66997;-70
2023/08/25 08:51:12;;;;;;;17.95;9.68;;;35.10;49.90;;;;;;4958412;28;50235;-70
2023/08/25 08:53:39;;;;;;;16.92;9.65;;;35.40;49.60;;;;;;4956234;28;50304;-69
2023/08/25 08:56:05;;;;;;;13.10;9.25;;;35.30;48.60;;;;;;4944962;28;49977;-69
2023/08/25 08:58:32;;;;;;;16.90;8.85;;;35.30;49.90;;;;;;4943186;28;47508;-69
2023/08/25 09:00:58;;;;;;;15.23;8.75;;;35.70;48.90;;;;;;4928100;28;49672;-70
2023/08/25 09:03:30;;;;;;;17.42;9.68;;;36.00;45.60;;;;;;4932485;28;49516;-70
2023/08/25 09:05:59;;;;;;;13.05;8.60;;;36.20;45.60;;;;;;4948317;28;49700;-70
2023/08/25 09:08:30;;;;;;;71.85;42.60;;;35.90;44.90;;;;;;4967940;28;49425;-70
2023/08/25 09:11:00;;;;;;;33.55;19.98;;;36.20;45.90;;;;;;4956942;28;48532;-70
2023/08/25 09:13:26;;;;;;;;;;;36.30;45.30;;;;;;4920842;28;49759;-70
2023/08/25 09:15:54;;;;;;;71.70;39.13;;;36.70;46.10;;;;;;4941878;28;49163;-70
2023/08/25 09:18:20;;;;;;;48.78;26.95;;;37.00;45.30;;;;;;4905182;28;49815;-70
2023/08/25 09:20:46;;;;;;;59.15;28.38;;;37.20;44.00;;;;;;4927697;28;49496;-70
2023/08/25 09:23:12;;;;;;;23.95;11.55;;;36.80;42.00;;;;;;4918489;28;49574;-72
2023/08/25 09:25:42;;;;;;;33.30;17.08;;;36.70;43.20;;;;;;4970319;28;32045;-71
2023/08/25 09:28:09;;;;;;;21.45;10.70;;;36.90;44.00;;;;;;4942301;28;49229;-71
2023/08/25 09:30:37;;;;;;;36.78;18.38;;;37.50;40.70;;;;;;4947757;28;49746;-71
2023/08/25 09:33:05;;;;;;;29.63;15.07;;;37.50;43.00;;;;;;4926248;28;49733;-71
2023/08/25 09:35:31;;;;;;;20.00;9.13;;;37.50;39.80;;;;;;4898611;28;49767;-72
2023/08/25 09:37:57;;;;;;;14.18;7.35;;;37.90;38.40;;;;;;4899340;28;60874;-71
2023/08/25 09:40:25;;;;;;;9.95;6.57;;;38.00;38.70;;;;;;4958368;28;49994;-71
2023/08/25 09:43:00;;;;;;;15.55;7.30;;;38.40;37.90;;;;;;4918496;28;49787;-71
2023/08/25 09:45:28;;;;;;;16.40;8.23;;;37.90;36.10;;;;;;4890921;28;49728;-71
2023/08/25 09:48:15;;;;;;;12.52;6.95;;;37.90;37.20;;;;;;4937048;28;50008;-71
2023/08/25 09:50:43;;;;;;;15.77;7.38;;;38.00;35.90;;;;;;4950944;28;49192;-71
2023/08/25 09:53:12;;;;;;;13.00;7.45;;;37.90;35.00;;;;;;4951212;28;48542;-71
2023/08/25 09:55:39;;;;;;;10.38;6.15;;;37.90;35.20;;;;;;4943041;28;40968;-71
2023/08/25 09:58:06;;;;;;;20.70;6.85;;;38.20;34.10;;;;;;4945937;28;49092;-72
2023/08/25 10:00:39;;;;;;;13.13;6.53;;;38.40;34.30;;;;;;4910871;28;49647;-70
2023/08/25 10:03:10;;;;;;;9.20;5.97;;;38.50;32.70;;;;;;4910110;28;49839;-71
2023/08/25 10:05:41;;;;;;;12.23;5.93;;;38.50;32.00;;;;;;4914683;28;73019;-72
2023/08/25 10:08:09;;;;;;;19.05;6.60;;;38.90;32.20;;;;;;4932840;28;50121;-73
2023/08/25 10:10:36;;;;;;;16.17;6.10;;;38.90;29.80;;;;;;4950735;28;50010;-72
2023/08/25 10:13:06;;;;;;;10.48;4.82;;;38.50;28.20;;;;;;4932372;28;68564;-71
2023/08/25 10:15:33;;;;;;;9.13;4.32;;;38.60;29.40;;;;;;4896303;28;49039;-72
2023/08/25 10:20:37;;;;;;;10.15;5.80;;;38.80;27.20;;;;;;5127584;27;20157;-71
2023/08/25 10:23:04;;;;;;;12.60;5.90;;;39.00;27.40;;;;;;5081084;27;20072;-72
2023/08/25 10:25:40;;;;;;;12.07;5.82;;;39.30;29.60;;;;;;4983026;28;1445602;-71
2023/08/25 10:28:08;;;;;;;10.98;5.30;;;39.10;28.40;;;;;;5040581;28;20043;-72
2023/08/25 10:30:35;;;;;;;9.75;5.60;;;38.00;29.10;;;;;;5048581;28;20080;-71
2023/08/25 10:33:09;;;;;;;8.48;5.47;;;37.80;29.60;;;;;;5074675;27;20039;-72
2023/08/25 10:35:43;;;;;;;12.57;5.72;;;38.20;31.00;;;;;;5061214;28;20087;-71
2023/08/25 10:38:22;;;;;;;8.32;5.47;;;38.00;29.20;;;;;;5069681;27;20516;-71
2023/08/25 10:40:50;;;;;;;11.32;5.45;;;38.80;29.60;;;;;;5076054;28;20531;-71
2023/08/25 10:43:32;;;;;;;8.13;5.07;;;38.60;30.50;;;;;;5042683;28;20597;-71
2023/08/25 10:46:00;;;;;;;;;;;38.70;29.10;;;;;;5055287;28;20280;-71
2023/08/25 10:48:27;;;;;;;16.63;6.20;;;39.20;28.20;;;;;;5041570;28;19916;-71
2023/08/25 10:51:04;;;;;;;7.95;5.47;;;39.00;29.30;;;;;;5055616;28;20264;-71
2023/08/25 10:53:53;;;;;;;9.10;5.45;;;39.70;28.90;;;;;;4985841;28;20098;-72
2023/08/25 10:56:22;;;;;;;10.02;6.13;;;39.70;27.60;;;;;;5025901;28;20044;-71
2023/08/25 10:58:56;;;;;;;;;;;40.10;27.90;;;;;;5035994;28;20122;-71
2023/08/25 11:01:38;;;;;;;11.48;6.68;;;39.70;26.80;;;;;;5035465;28;20302;-71
2023/08/25 11:04:12;;;;;;;10.75;6.35;;;37.40;29.10;;;;;;5027434;28;20811;-71
2023/08/25 11:06:43;;;;;;;14.00;5.70;;;37.10;30.20;;;;;;5009352;28;20151;-71
2023/08/25 11:09:32;;;;;;;8.57;5.55;;;38.30;29.90;;;;;;4993499;28;20046;-71
2023/08/25 11:12:05;;;;;;;12.77;6.78;;;39.20;28.70;;;;;;5004315;28;20362;-72
2023/08/25 11:14:36;;;;;;;8.27;5.38;;;38.90;28.10;;;;;;5018860;28;20118;-70
2023/08/25 11:17:06;;;;;;;11.27;6.00;;;38.90;29.20;;;;;;5029024;28;20087;-71
2023/08/25 11:19:36;;;;;;;9.95;6.03;;;38.40;28.40;;;;;;5010368;28;20529;-71
2023/08/25 11:22:05;;;;;;;11.68;6.32;;;39.20;28.30;;;;;;5022141;28;20068;-71
2023/08/25 11:24:32;;;;;;;11.02;5.85;;;39.10;28.10;;;;;;5059764;28;20391;-71
2023/08/25 11:27:09;;;;;;;10.15;6.20;;;39.30;27.20;;;;;;5041963;28;20078;-71
2023/08/25 11:29:35;;;;;;;12.20;6.70;;;38.90;28.00;;;;;;5033968;28;20044;-72
2023/08/25 11:32:02;;;;;;;8.93;5.80;;;38.30;27.90;;;;;;5013597;28;20482;-72
2023/08/25 11:34:32;;;;;;;101.47;45.70;;;38.00;27.90;;;;;;5024369;28;20056;-72
2023/08/25 11:36:58;;;;;;;;;;;38.70;29.00;;;;;;5006713;28;20036;-71
2023/08/25 11:39:24;;;;;;;11.18;5.82;;;39.20;27.10;;;;;;5026381;28;20432;-71
2023/08/25 11:41:54;;;;;;;10.85;5.80;;;39.60;26.50;;;;;;5033476;28;20572;-72
2023/08/25 11:44:21;;;;;;;11.00;6.05;;;40.00;26.20;;;;;;5036981;28;20102;-70
2023/08/25 11:46:48;;;;;;;9.43;5.30;;;39.70;25.60;;;;;;5035655;28;20033;-71
2023/08/25 11:49:13;;;;;;;6.10;5.35;;;39.00;26.00;;;;;;5014161;28;20044;-71
2023/08/25 11:51:39;;;;;;;13.18;6.57;;;39.20;28.10;;;;;;5001770;28;22951;-71
2023/08/25 11:54:06;;;;;;;10.35;6.70;;;39.50;26.90;;;;;;5014740;28;20056;-70
2023/08/25 11:56:32;;;;;;;9.60;5.80;;;39.50;26.70;;;;;;5028899;28;20044;-71
2023/08/25 11:58:58;;;;;;;9.43;5.90;;;38.60;26.50;;;;;;5028271;28;20048;-71
2023/08/25 12:01:35;;;;;;;11.07;6.93;;;39.50;27.90;;;;;;5027002;28;20231;-71
2023/08/25 12:04:20;;;;;;;12.93;6.40;;;40.00;26.00;;;;;;5002881;28;20090;-71
2023/08/25 12:06:46;;;;;;;6.25;4.65;;;40.00;26.90;;;;;;4985851;28;20947;-72
2023/08/25 12:09:12;;;;;;;14.68;5.53;;;38.90;23.00;;;;;;4958472;28;20059;-70
2023/08/25 12:11:38;;;;;;;10.63;5.72;;;39.30;23.70;;;;;;4995030;28;20041;-71
2023/08/25 12:14:04;;;;;;;11.23;5.65;;;39.70;23.90;;;;;;5013974;28;20209;-71
2023/08/25 12:16:30;;;;;;;9.77;6.00;;;39.50;23.70;;;;;;5006213;28;20352;-72
2023/08/25 12:18:56;;;;;;;9.25;5.32;;;39.40;24.50;;;;;;4991974;28;21423;-72
2023/08/25 12:21:34;;;;;;;8.40;5.47;;;39.70;24.50;;;;;;4982576;28;21806;-71
2023/08/25 12:24:00;;;;;;;12.60;6.35;;;40.10;24.90;;;;;;5008417;28;22393;-72
2023/08/25 12:26:26;;;;;;;20.27;6.80;;;39.80;24.00;;;;;;5014062;28;23414;-72
2023/08/25 12:28:53;;;;;;;12.88;6.20;;;39.20;24.80;;;;;;5013887;28;23937;-72
2023/08/25 12:31:19;;;;;;;13.43;5.82;;;38.30;25.60;;;;;;4978494;28;24645;-72
2023/08/25 12:33:45;;;;;;;13.55;6.88;;;38.20;26.70;;;;;;4978177;28;31020;-72
2023/08/25 12:36:11;;;;;;;11.93;6.28;;;38.70;26.40;;;;;;5002373;28;31330;-72
2023/08/25 12:38:37;;;;;;;14.98;6.68;;;38.80;25.80;;;;;;5021587;28;31234;-71
2023/08/25 12:41:04;;;;;;;12.55;7.75;;;38.80;25.70;;;;;;4975468;28;32920;-71
2023/08/25 12:43:30;;;;;;;6.95;5.47;;;38.00;26.20;;;;;;4981352;28;33949;-70
2023/08/25 12:45:56;;;;;;;7.53;5.10;;;37.60;26.00;;;;;;5006152;28;34356;-71
2023/08/25 12:48:23;;;;;;;11.20;5.63;;;38.50;27.10;;;;;;5016111;28;35218;-72